sensor_id;sensor_type;location;lat;lon;timestamp;pressure;altitude;pressure_sealevel;temperature;humidity
76124;BME280;65173;48.066;20.976;2023-09-18T00:02:05;100763.69;;;17.51;100.00
76124;BME280;65173;48.066;20.976;2023-09-18T00:05:07;100759.88;;;17.52;100.00
76124;BME280;65173;48.066;20.976;2023-09-18T00:08:10;100768.75;;;17.52;100.00
76124;BME280;65173;48.066;20.976;2023-09-18T00:11:13;100774.56;;;17.54;100.00
76124;BME280;65173;48.066;20.976;2023-09-18T00:14:15;100769.09;;;17.51;100.00
76124;BME280;65173;48.066;20.976;2023-09-18T00:17:17;100774.38;;;17.47;100.00
76124;BME280;65173;48.066;20.976;2023-09-18T00:20:21;100767.34;;;17.43;100.00
76124;BME280;65173;48.066;20.976;2023-09-18T00:23:29;100762.22;;;17.38;100.00
76124;BME280;65173;48.066;20.976;2023-09-18T00:26:31;100771.25;;;17.29;100.00
76124;BME280;65173;48.066;20.976;2023-09-18T00:29:34;100772.59;;;17.23;100.00
76124;BME280;65173;48.066;20.976;2023-09-18T00:32:37;100771.75;;;17.19;100.00
76124;BME280;65173;48.066;20.976;2023-09-18T00:35:40;100763.91;;;17.14;100.00
76124;BME280;65173;48.066;20.976;2023-09-18T00:38:42;100770.34;;;17.10;100.00
76124;BME280;65173;48.066;20.976;2023-09-18T00:41:46;100760.69;;;17.09;100.00
76124;BME280;65173;48.066;20.976;2023-09-18T00:44:51;100762.94;;;17.07;100.00
76124;BME280;65173;48.066;20.976;2023-09-18T00:47:54;100756.34;;;17.20;100.00
76124;BME280;65173;48.066;20.976;2023-09-18T00:50:57;100760.25;;;17.07;100.00
76124;BME280;65173;48.066;20.976;2023-09-18T00:53:59;100760.06;;;16.99;100.00
76124;BME280;65173;48.066;20.976;2023-09-18T00:57:03;100760.44;;;16.86;100.00
76124;BME280;65173;48.066;20.976;2023-09-18T01:00:06;100761.38;;;16.78;100.00
76124;BME280;65173;48.066;20.976;2023-09-18T01:03:09;100764.41;;;16.76;100.00
76124;BME280;65173;48.066;20.976;2023-09-18T01:06:12;100767.00;;;16.73;100.00
76124;BME280;65173;48.066;20.976;2023-09-18T01:09:17;100766.56;;;16.71;100.00
76124;BME280;65173;48.066;20.976;2023-09-18T01:15:42;100768.44;;;16.82;100.00
76124;BME280;65173;48.066;20.976;2023-09-18T01:18:50;100763.63;;;16.76;100.00
76124;BME280;65173;48.066;20.976;2023-09-18T01:21:53;100765.00;;;16.70;100.00
76124;BME280;65173;48.066;20.976;2023-09-18T01:24:55;100770.72;;;16.68;100.00
76124;BME280;65173;48.066;20.976;2023-09-18T01:27:58;100764.63;;;16.83;100.00
76124;BME280;65173;48.066;20.976;2023-09-18T01:31:00;100765.91;;;17.02;100.00
76124;BME280;65173;48.066;20.976;2023-09-18T01:34:03;100766.16;;;17.12;100.00
76124;BME280;65173;48.066;20.976;2023-09-18T01:37:06;100766.63;;;17.14;100.00
76124;BME280;65173;48.066;20.976;2023-09-18T01:40:09;100768.53;;;17.14;100.00
76124;BME280;65173;48.066;20.976;2023-09-18T01:43:13;100768.41;;;17.10;100.00
76124;BME280;65173;48.066;20.976;2023-09-18T01:46:16;100773.38;;;17.08;100.00
76124;BME280;65173;48.066;20.976;2023-09-18T01:49:33;100766.41;;;17.07;100.00
76124;BME280;65173;48.066;20.976;2023-09-18T01:52:36;100767.94;;;16.92;100.00
76124;BME280;65173;48.066;20.976;2023-09-18T01:55:38;100773.44;;;16.96;100.00
76124;BME280;65173;48.066;20.976;2023-09-18T01:58:41;100775.91;;;16.89;100.00
76124;BME280;65173;48.066;20.976;2023-09-18T02:01:44;100771.22;;;16.86;100.00
76124;BME280;65173;48.066;20.976;2023-09-18T02:04:47;100775.41;;;16.71;100.00
76124;BME280;65173;48.066;20.976;2023-09-18T02:08:07;100771.16;;;16.70;100.00
76124;BME280;65173;48.066;20.976;2023-09-18T02:11:10;100771.19;;;16.98;100.00
76124;BME280;65173;48.066;20.976;2023-09-18T02:14:13;100779.72;;;16.88;100.00
76124;BME280;65173;48.066;20.976;2023-09-18T02:17:15;100776.84;;;16.81;100.00
76124;BME280;65173;48.066;20.976;2023-09-18T02:20:18;100780.00;;;16.83;100.00
76124;BME280;65173;48.066;20.976;2023-09-18T02:23:20;100777.94;;;16.64;100.00
76124;BME280;65173;48.066;20.976;2023-09-18T02:26:24;100775.25;;;16.64;100.00
76124;BME280;65173;48.066;20.976;2023-09-18T02:29:26;100778.03;;;16.55;100.00
76124;BME280;65173;48.066;20.976;2023-09-18T02:32:30;100776.78;;;16.53;100.00
76124;BME280;65173;48.066;20.976;2023-09-18T02:35:33;100775.81;;;16.45;100.00
76124;BME280;65173;48.066;20.976;2023-09-18T02:38:35;100773.25;;;16.37;100.00
76124;BME280;65173;48.066;20.976;2023-09-18T02:41:38;100778.09;;;16.19;100.00
76124;BME280;65173;48.066;20.976;2023-09-18T02:44:41;100774.81;;;16.38;100.00
76124;BME280;65173;48.066;20.976;2023-09-18T02:47:43;100774.81;;;16.38;100.00
76124;BME280;65173;48.066;20.976;2023-09-18T02:50:46;100767.56;;;16.26;100.00
76124;BME280;65173;48.066;20.976;2023-09-18T02:53:48;100776.72;;;16.13;100.00
76124;BME280;65173;48.066;20.976;2023-09-18T02:56:51;100784.72;;;16.09;100.00
76124;BME280;65173;48.066;20.976;2023-09-18T02:59:53;100785.72;;;16.05;100.00
76124;BME280;65173;48.066;20.976;2023-09-18T03:02:56;100779.31;;;15.97;100.00
76124;BME280;65173;48.066;20.976;2023-09-18T03:06:03;100785.72;;;15.92;100.00
76124;BME280;65173;48.066;20.976;2023-09-18T03:09:07;100779.56;;;15.92;100.00
76124;BME280;65173;48.066;20.976;2023-09-18T03:12:10;100780.69;;;15.91;100.00
76124;BME280;65173;48.066;20.976;2023-09-18T03:15:13;100783.81;;;15.93;100.00
76124;BME280;65173;48.066;20.976;2023-09-18T03:18:16;100788.50;;;15.84;100.00
76124;BME280;65173;48.066;20.976;2023-09-18T03:21:18;100788.50;;;15.84;100.00
76124;BME280;65173;48.066;20.976;2023-09-18T03:24:21;100790.78;;;15.94;100.00
76124;BME280;65173;48.066;20.976;2023-09-18T03:27:23;100782.81;;;15.85;100.00
76124;BME280;65173;48.066;20.976;2023-09-18T03:30:31;100784.91;;;15.80;100.00
76124;BME280;65173;48.066;20.976;2023-09-18T03:33:34;100781.69;;;15.74;100.00
76124;BME280;65173;48.066;20.976;2023-09-18T03:36:37;100783.13;;;15.72;100.00
76124;BME280;65173;48.066;20.976;2023-09-18T03:39:41;100785.25;;;15.66;100.00
76124;BME280;65173;48.066;20.976;2023-09-18T03:42:44;100784.13;;;15.67;100.00
76124;BME280;65173;48.066;20.976;2023-09-18T03:45:47;100798.16;;;15.73;100.00
76124;BME280;65173;48.066;20.976;2023-09-18T03:48:50;100788.19;;;15.73;100.00
76124;BME280;65173;48.066;20.976;2023-09-18T03:51:54;100780.78;;;15.70;100.00
76124;BME280;65173;48.066;20.976;2023-09-18T03:54:56;100782.81;;;15.85;100.00
76124;BME280;65173;48.066;20.976;2023-09-18T03:57:59;100776.97;;;15.83;100.00
76124;BME280;65173;48.066;20.976;2023-09-18T04:01:01;100774.06;;;15.76;100.00
76124;BME280;65173;48.066;20.976;2023-09-18T04:04:05;100775.41;;;15.70;100.00
76124;BME280;65173;48.066;20.976;2023-09-18T04:07:08;100762.06;;;15.61;100.00
76124;BME280;65173;48.066;20.976;2023-09-18T04:10:12;100763.75;;;15.66;100.00
76124;BME280;65173;48.066;20.976;2023-09-18T04:13:20;100765.03;;;15.48;100.00
76124;BME280;65173;48.066;20.976;2023-09-18T04:16:23;100767.16;;;15.42;100.00
76124;BME280;65173;48.066;20.976;2023-09-18T04:19:26;100776.44;;;15.33;100.00
76124;BME280;65173;48.066;20.976;2023-09-18T04:22:28;100779.72;;;15.50;100.00
76124;BME280;65173;48.066;20.976;2023-09-18T04:25:31;100769.03;;;15.29;100.00
76124;BME280;65173;48.066;20.976;2023-09-18T04:28:34;100769.75;;;15.39;100.00
76124;BME280;65173;48.066;20.976;2023-09-18T04:31:36;100773.22;;;15.51;100.00
76124;BME280;65173;48.066;20.976;2023-09-18T04:34:40;100775.66;;;15.44;100.00
76124;BME280;65173;48.066;20.976;2023-09-18T04:37:42;100783.97;;;15.39;100.00
76124;BME280;65173;48.066;20.976;2023-09-18T04:40:45;100774.19;;;15.35;100.00
76124;BME280;65173;48.066;20.976;2023-09-18T04:43:49;100769.94;;;15.34;100.00
76124;BME280;65173;48.066;20.976;2023-09-18T04:46:52;100770.59;;;15.31;100.00
76124;BME280;65173;48.066;20.976;2023-09-18T04:49:54;100775.97;;;15.31;100.00
76124;BME280;65173;48.066;20.976;2023-09-18T04:52:57;100778.22;;;15.41;100.00
76124;BME280;65173;48.066;20.976;2023-09-18T04:56:00;100769.50;;;15.44;100.00
76124;BME280;65173;48.066;20.976;2023-09-18T04:59:03;100777.34;;;15.49;100.00
76124;BME280;65173;48.066;20.976;2023-09-18T05:02:06;100777.63;;;15.56;100.00
76124;BME280;65173;48.066;20.976;2023-09-18T05:05:09;100781.00;;;15.65;100.00
76124;BME280;65173;48.066;20.976;2023-09-18T05:08:11;100782.16;;;15.76;100.00
76124;BME280;65173;48.066;20.976;2023-09-18T05:11:14;100778.63;;;16.12;100.00
76124;BME280;65173;48.066;20.976;2023-09-18T05:14:16;100786.81;;;16.40;100.00
76124;BME280;65173;48.066;20.976;2023-09-18T05:17:19;100779.25;;;16.58;100.00
76124;BME280;65173;48.066;20.976;2023-09-18T05:20:21;100774.63;;;16.71;100.00
76124;BME280;65173;48.066;20.976;2023-09-18T05:23:26;100785.97;;;16.52;100.00
76124;BME280;65173;48.066;20.976;2023-09-18T05:26:28;100781.59;;;16.72;100.00
76124;BME280;65173;48.066;20.976;2023-09-18T05:29:33;100782.69;;;16.83;100.00
76124;BME280;65173;48.066;20.976;2023-09-18T05:32:35;100781.28;;;17.01;100.00
76124;BME280;65173;48.066;20.976;2023-09-18T05:35:42;100774.22;;;16.96;100.00
76124;BME280;65173;48.066;20.976;2023-09-18T05:38:45;100782.69;;;17.26;100.00
76124;BME280;65173;48.066;20.976;2023-09-18T05:41:48;100788.44;;;17.25;100.00
76124;BME280;65173;48.066;20.976;2023-09-18T05:44:50;100785.59;;;17.33;100.00
76124;BME280;65173;48.066;20.976;2023-09-18T05:47:53;100784.81;;;17.33;100.00
76124;BME280;65173;48.066;20.976;2023-09-18T05:50:56;100784.91;;;17.52;100.00
76124;BME280;65173;48.066;20.976;2023-09-18T05:53:59;100779.66;;;17.28;100.00
76124;BME280;65173;48.066;20.976;2023-09-18T05:57:02;100781.31;;;17.32;100.00
76124;BME280;65173;48.066;20.976;2023-09-18T06:00:06;100771.78;;;17.51;100.00
76124;BME280;65173;48.066;20.976;2023-09-18T06:03:15;100771.84;;;17.39;100.00
76124;BME280;65173;48.066;20.976;2023-09-18T06:06:21;100769.88;;;17.51;100.00
76124;BME280;65173;48.066;20.976;2023-09-18T06:09:23;100767.59;;;18.00;100.00
76124;BME280;65173;48.066;20.976;2023-09-18T06:12:26;100769.56;;;18.54;100.00
76124;BME280;65173;48.066;20.976;2023-09-18T06:15:28;100767.13;;;18.14;100.00
76124;BME280;65173;48.066;20.976;2023-09-18T06:18:31;100769.03;;;18.49;100.00
76124;BME280;65173;48.066;20.976;2023-09-18T06:21:33;100773.22;;;19.23;100.00
76124;BME280;65173;48.066;20.976;2023-09-18T06:24:36;100768.41;;;19.55;100.00
76124;BME280;65173;48.066;20.976;2023-09-18T06:27:39;100767.63;;;20.04;100.00
76124;BME280;65173;48.066;20.976;2023-09-18T06:30:41;100779.56;;;20.56;100.00
76124;BME280;65173;48.066;20.976;2023-09-18T06:33:43;100784.94;;;20.26;100.00
76124;BME280;65173;48.066;20.976;2023-09-18T06:36:46;100783.19;;;20.37;100.00
76124;BME280;65173;48.066;20.976;2023-09-18T06:39:48;100782.47;;;20.70;100.00
76124;BME280;65173;48.066;20.976;2023-09-18T06:42:51;100781.50;;;20.55;100.00
76124;BME280;65173;48.066;20.976;2023-09-18T06:45:56;100777.44;;;20.72;100.00
76124;BME280;65173;48.066;20.976;2023-09-18T06:49:00;100776.19;;;20.99;100.00
76124;BME280;65173;48.066;20.976;2023-09-18T06:52:03;100766.97;;;21.04;100.00
76124;BME280;65173;48.066;20.976;2023-09-18T06:55:08;100763.34;;;21.26;100.00
76124;BME280;65173;48.066;20.976;2023-09-18T06:58:11;100759.44;;;21.24;100.00
76124;BME280;65173;48.066;20.976;2023-09-18T07:01:13;100769.41;;;21.16;100.00
76124;BME280;65173;48.066;20.976;2023-09-18T07:04:17;100772.25;;;21.67;100.00
76124;BME280;65173;48.066;20.976;2023-09-18T07:07:20;100768.69;;;22.11;100.00
76124;BME280;65173;48.066;20.976;2023-09-18T07:10:27;100757.25;;;22.49;100.00
76124;BME280;65173;48.066;20.976;2023-09-18T07:13:30;100754.34;;;23.08;100.00
76124;BME280;65173;48.066;20.976;2023-09-18T07:16:32;100759.38;;;23.02;100.00
76124;BME280;65173;48.066;20.976;2023-09-18T07:19:36;100756.31;;;23.11;100.00
76124;BME280;65173;48.066;20.976;2023-09-18T07:22:40;100755.53;;;23.85;100.00
76124;BME280;65173;48.066;20.976;2023-09-18T07:25:43;100756.31;;;23.43;100.00
76124;BME280;65173;48.066;20.976;2023-09-18T07:28:46;100752.44;;;23.83;100.00
76124;BME280;65173;48.066;20.976;2023-09-18T07:31:49;100749.66;;;24.11;100.00
76124;BME280;65173;48.066;20.976;2023-09-18T07:34:52;100753.81;;;24.55;100.00
76124;BME280;65173;48.066;20.976;2023-09-18T07:37:54;100757.09;;;25.05;96.76
76124;BME280;65173;48.066;20.976;2023-09-18T07:40:57;100764.41;;;25.19;91.58
76124;BME280;65173;48.066;20.976;2023-09-18T07:43:59;100757.91;;;24.91;88.89
76124;BME280;65173;48.066;20.976;2023-09-18T07:47:01;100761.66;;;25.74;82.65
76124;BME280;65173;48.066;20.976;2023-09-18T07:50:05;100763.34;;;25.99;79.21
76124;BME280;65173;48.066;20.976;2023-09-18T07:53:07;100752.53;;;26.59;76.77
76124;BME280;65173;48.066;20.976;2023-09-18T07:56:10;100748.34;;;26.51;74.76
76124;BME280;65173;48.066;20.976;2023-09-18T07:59:13;100741.69;;;27.10;72.37
76124;BME280;65173;48.066;20.976;2023-09-18T08:02:17;100745.81;;;27.72;71.70
76124;BME280;65173;48.066;20.976;2023-09-18T08:05:24;100744.34;;;27.17;67.88
76124;BME280;65173;48.066;20.976;2023-09-18T08:08:30;100745.25;;;27.34;62.77
76124;BME280;65173;48.066;20.976;2023-09-18T08:11:35;100737.56;;;26.98;64.69
76124;BME280;65173;48.066;20.976;2023-09-18T08:14:39;100741.69;;;27.37;61.23
76124;BME280;65173;48.066;20.976;2023-09-18T08:17:41;100741.63;;;28.07;59.22
76124;BME280;65173;48.066;20.976;2023-09-18T08:20:44;100741.31;;;27.81;58.22
76124;BME280;65173;48.066;20.976;2023-09-18T08:23:47;100744.75;;;28.28;57.00
76124;BME280;65173;48.066;20.976;2023-09-18T08:26:51;100740.53;;;28.24;57.77
76124;BME280;65173;48.066;20.976;2023-09-18T08:29:54;100726.59;;;27.48;58.38
76124;BME280;65173;48.066;20.976;2023-09-18T08:32:56;100731.22;;;27.98;56.84
76124;BME280;65173;48.066;20.976;2023-09-18T08:35:59;100727.91;;;27.87;59.09
76124;BME280;65173;48.066;20.976;2023-09-18T08:39:03;100732.78;;;28.75;57.70
76124;BME280;65173;48.066;20.976;2023-09-18T08:42:09;100729.94;;;28.62;53.38
76124;BME280;65173;48.066;20.976;2023-09-18T08:45:23;100727.78;;;29.70;54.85
76124;BME280;65173;48.066;20.976;2023-09-18T08:48:29;100724.44;;;29.92;48.79
76124;BME280;65173;48.066;20.976;2023-09-18T08:51:38;100710.88;;;30.68;49.98
76124;BME280;65173;48.066;20.976;2023-09-18T08:54:40;100721.47;;;30.15;51.72
76124;BME280;65173;48.066;20.976;2023-09-18T08:57:43;100711.38;;;30.25;50.60
76124;BME280;65173;48.066;20.976;2023-09-18T09:00:46;100717.16;;;29.40;50.65
76124;BME280;65173;48.066;20.976;2023-09-18T09:03:49;100710.69;;;29.63;50.03
76124;BME280;65173;48.066;20.976;2023-09-18T09:06:51;100705.84;;;29.54;50.68
76124;BME280;65173;48.066;20.976;2023-09-18T09:09:54;100703.53;;;29.53;50.82
76124;BME280;65173;48.066;20.976;2023-09-18T09:13:00;100701.06;;;29.71;48.71
76124;BME280;65173;48.066;20.976;2023-09-18T09:16:04;100694.47;;;31.02;48.01
76124;BME280;65173;48.066;20.976;2023-09-18T09:19:06;100691.63;;;30.55;48.07
76124;BME280;65173;48.066;20.976;2023-09-18T09:22:19;100687.56;;;30.60;47.84
76124;BME280;65173;48.066;20.976;2023-09-18T09:25:30;100687.25;;;30.03;46.92
76124;BME280;65173;48.066;20.976;2023-09-18T09:28:33;100695.28;;;29.36;50.22
76124;BME280;65173;48.066;20.976;2023-09-18T09:31:37;100692.84;;;29.71;47.64
76124;BME280;65173;48.066;20.976;2023-09-18T09:34:41;100682.31;;;29.53;49.40
76124;BME280;65173;48.066;20.976;2023-09-18T09:37:44;100686.59;;;29.54;49.40
76124;BME280;65173;48.066;20.976;2023-09-18T09:40:47;100676.44;;;29.67;48.92
76124;BME280;65173;48.066;20.976;2023-09-18T09:43:50;100676.34;;;28.93;50.50
76124;BME280;65173;48.066;20.976;2023-09-18T09:46:53;100668.78;;;28.81;52.91
76124;BME280;65173;48.066;20.976;2023-09-18T09:49:55;100668.06;;;30.67;47.07
76124;BME280;65173;48.066;20.976;2023-09-18T09:52:59;100657.81;;;30.93;48.70
76124;BME280;65173;48.066;20.976;2023-09-18T09:56:01;100662.63;;;31.49;47.57
76124;BME280;65173;48.066;20.976;2023-09-18T09:59:05;100649.88;;;31.42;45.82
76124;BME280;65173;48.066;20.976;2023-09-18T10:02:10;100648.84;;;32.36;45.09
76124;BME280;65173;48.066;20.976;2023-09-18T10:05:18;100640.56;;;31.27;46.84
76124;BME280;65173;48.066;20.976;2023-09-18T10:08:23;100639.63;;;32.08;45.28
76124;BME280;65173;48.066;20.976;2023-09-18T10:11:28;100634.78;;;29.40;49.55
76124;BME280;65173;48.066;20.976;2023-09-18T10:14:33;100634.88;;;29.04;50.89
76124;BME280;65173;48.066;20.976;2023-09-18T10:17:59;100641.34;;;28.81;51.30
76124;BME280;65173;48.066;20.976;2023-09-18T10:24:34;100624.00;;;30.03;47.62
76124;BME280;65173;48.066;20.976;2023-09-18T10:27:42;100607.75;;;30.09;46.68
76124;BME280;65173;48.066;20.976;2023-09-18T10:30:45;100606.97;;;30.09;46.74
76124;BME280;65173;48.066;20.976;2023-09-18T10:33:48;100603.00;;;30.48;45.88
76124;BME280;65173;48.066;20.976;2023-09-18T10:36:54;100609.09;;;31.37;46.49
76124;BME280;65173;48.066;20.976;2023-09-18T10:39:58;100598.09;;;31.59;44.10
76124;BME280;65173;48.066;20.976;2023-09-18T10:43:03;100602.50;;;31.13;45.33
76124;BME280;65173;48.066;20.976;2023-09-18T10:46:06;100578.69;;;30.71;46.22
76124;BME280;65173;48.066;20.976;2023-09-18T10:49:09;100578.00;;;32.02;44.61
76124;BME280;65173;48.066;20.976;2023-09-18T10:52:13;100583.69;;;31.77;44.36
76124;BME280;65173;48.066;20.976;2023-09-18T10:55:16;100581.09;;;32.04;42.26
76124;BME280;65173;48.066;20.976;2023-09-18T10:58:25;100578.69;;;31.62;42.55
76124;BME280;65173;48.066;20.976;2023-09-18T11:01:29;100575.66;;;32.22;42.15
76124;BME280;65173;48.066;20.976;2023-09-18T11:04:32;100570.94;;;30.92;44.62
76124;BME280;65173;48.066;20.976;2023-09-18T11:07:35;100558.31;;;30.69;45.49
76124;BME280;65173;48.066;20.976;2023-09-18T11:10:54;100571.78;;;30.03;45.90
76124;BME280;65173;48.066;20.976;2023-09-18T11:13:57;100572.91;;;28.58;48.95
76124;BME280;65173;48.066;20.976;2023-09-18T11:17:03;100547.78;;;30.17;46.04
76124;BME280;65173;48.066;20.976;2023-09-18T11:20:07;100544.78;;;30.49;45.58
76124;BME280;65173;48.066;20.976;2023-09-18T11:26:20;100549.72;;;29.65;46.29
76124;BME280;65173;48.066;20.976;2023-09-18T11:29:23;100537.03;;;29.26;47.23
76124;BME280;65173;48.066;20.976;2023-09-18T11:32:39;100536.84;;;27.71;51.15
76124;BME280;65173;48.066;20.976;2023-09-18T11:35:51;100549.41;;;28.41;50.36
76124;BME280;65173;48.066;20.976;2023-09-18T11:38:58;100531.88;;;28.18;50.15
76124;BME280;65173;48.066;20.976;2023-09-18T11:42:10;100531.56;;;28.49;50.47
76124;BME280;65173;48.066;20.976;2023-09-18T11:45:16;100522.22;;;28.79;49.64
76124;BME280;65173;48.066;20.976;2023-09-18T11:48:20;100525.56;;;28.70;50.74
76124;BME280;65173;48.066;20.976;2023-09-18T11:51:23;100533.03;;;28.53;50.54
76124;BME280;65173;48.066;20.976;2023-09-18T11:54:29;100519.94;;;28.45;49.98
76124;BME280;65173;48.066;20.976;2023-09-18T11:57:37;100524.72;;;28.73;48.82
76124;BME280;65173;48.066;20.976;2023-09-18T12:00:39;100522.94;;;27.98;50.30
76124;BME280;65173;48.066;20.976;2023-09-18T12:03:55;100521.66;;;27.27;52.63
76124;BME280;65173;48.066;20.976;2023-09-18T12:06:58;100517.66;;;27.51;52.95
76124;BME280;65173;48.066;20.976;2023-09-18T12:10:05;100514.88;;;27.75;52.56
76124;BME280;65173;48.066;20.976;2023-09-18T12:13:11;100514.00;;;27.78;53.02
76124;BME280;65173;48.066;20.976;2023-09-18T12:16:15;100510.97;;;27.92;52.52
76124;BME280;65173;48.066;20.976;2023-09-18T12:19:18;100511.25;;;27.78;52.35
76124;BME280;65173;48.066;20.976;2023-09-18T12:22:27;100509.59;;;28.16;52.43
76124;BME280;65173;48.066;20.976;2023-09-18T12:25:30;100506.59;;;27.58;52.74
76124;BME280;65173;48.066;20.976;2023-09-18T12:28:36;100498.03;;;27.92;51.96
76124;BME280;65173;48.066;20.976;2023-09-18T12:31:38;100504.31;;;28.09;53.45
76124;BME280;65173;48.066;20.976;2023-09-18T12:34:41;100498.34;;;27.78;51.86
76124;BME280;65173;48.066;20.976;2023-09-18T12:37:44;100503.41;;;28.48;51.19
76124;BME280;65173;48.066;20.976;2023-09-18T12:40:48;100499.56;;;28.29;49.45
76124;BME280;65173;48.066;20.976;2023-09-18T12:43:50;100491.88;;;28.69;49.89
76124;BME280;65173;48.066;20.976;2023-09-18T12:46:53;100491.97;;;28.50;50.49
76124;BME280;65173;48.066;20.976;2023-09-18T12:50:02;100491.13;;;28.37;49.62
76124;BME280;65173;48.066;20.976;2023-09-18T12:53:12;100488.91;;;27.79;51.70
76124;BME280;65173;48.066;20.976;2023-09-18T12:56:15;100481.72;;;27.49;52.19
76124;BME280;65173;48.066;20.976;2023-09-18T12:59:18;100483.97;;;28.26;50.64
76124;BME280;65173;48.066;20.976;2023-09-18T13:02:21;100475.16;;;27.83;51.00
76124;BME280;65173;48.066;20.976;2023-09-18T13:05:31;100476.56;;;28.07;51.95
76124;BME280;65173;48.066;20.976;2023-09-18T13:08:38;100458.38;;;27.81;51.61
76124;BME280;65173;48.066;20.976;2023-09-18T13:11:57;100459.97;;;27.78;51.52
76124;BME280;65173;48.066;20.976;2023-09-18T13:15:01;100444.50;;;27.72;51.61
76124;BME280;65173;48.066;20.976;2023-09-18T13:18:11;100446.88;;;27.70;51.01
76124;BME280;65173;48.066;20.976;2023-09-18T13:21:14;100442.19;;;27.50;51.88
76124;BME280;65173;48.066;20.976;2023-09-18T13:24:29;100440.00;;;27.61;52.19
76124;BME280;65173;48.066;20.976;2023-09-18T13:27:32;100428.56;;;27.67;52.36
76124;BME280;65173;48.066;20.976;2023-09-18T13:30:36;100421.91;;;27.48;51.42
76124;BME280;65173;48.066;20.976;2023-09-18T13:33:41;100422.81;;;27.61;52.52
76124;BME280;65173;48.066;20.976;2023-09-18T13:36:47;100421.25;;;27.60;52.78
76124;BME280;65173;48.066;20.976;2023-09-18T13:39:50;100416.38;;;27.31;52.70
76124;BME280;65173;48.066;20.976;2023-09-18T13:42:53;100407.81;;;27.29;53.66
76124;BME280;65173;48.066;20.976;2023-09-18T13:45:56;100416.97;;;27.59;52.52
76124;BME280;65173;48.066;20.976;2023-09-18T13:48:59;100410.25;;;27.80;51.34
76124;BME280;65173;48.066;20.976;2023-09-18T13:52:02;100398.44;;;27.99;52.49
76124;BME280;65173;48.066;20.976;2023-09-18T13:55:06;100411.19;;;27.37;52.87
76124;BME280;65173;48.066;20.976;2023-09-18T13:58:08;100399.34;;;27.60;52.38
76124;BME280;65173;48.066;20.976;2023-09-18T14:01:11;100394.25;;;27.42;52.43
76124;BME280;65173;48.066;20.976;2023-09-18T14:04:14;100382.63;;;27.38;52.38
76124;BME280;65173;48.066;20.976;2023-09-18T14:07:17;100382.44;;;27.45;52.71
76124;BME280;65173;48.066;20.976;2023-09-18T14:10:19;100375.09;;;27.42;52.78
76124;BME280;65173;48.066;20.976;2023-09-18T14:13:24;100368.66;;;27.69;52.62
76124;BME280;65173;48.066;20.976;2023-09-18T14:16:26;100357.69;;;27.69;52.21
76124;BME280;65173;48.066;20.976;2023-09-18T14:19:30;100353.41;;;28.00;52.57
76124;BME280;65173;48.066;20.976;2023-09-18T14:22:33;100364.03;;;27.82;53.58
76124;BME280;65173;48.066;20.976;2023-09-18T14:25:36;100354.53;;;27.70;52.91
76124;BME280;65173;48.066;20.976;2023-09-18T14:28:39;100354.59;;;27.67;53.38
76124;BME280;65173;48.066;20.976;2023-09-18T14:31:41;100361.72;;;27.64;52.98
76124;BME280;65173;48.066;20.976;2023-09-18T14:34:44;100354.94;;;27.85;53.27
76124;BME280;65173;48.066;20.976;2023-09-18T14:37:48;100352.72;;;28.12;52.23
76124;BME280;65173;48.066;20.976;2023-09-18T14:40:51;100344.16;;;27.78;52.50
76124;BME280;65173;48.066;20.976;2023-09-18T14:43:53;100346.41;;;27.67;51.80
76124;BME280;65173;48.066;20.976;2023-09-18T14:46:56;100344.97;;;27.42;53.39
76124;BME280;65173;48.066;20.976;2023-09-18T14:49:58;100341.72;;;27.31;53.01
76124;BME280;65173;48.066;20.976;2023-09-18T14:53:01;100331.88;;;27.34;53.87
76124;BME280;65173;48.066;20.976;2023-09-18T14:56:05;100319.84;;;27.63;53.69
76124;BME280;65173;48.066;20.976;2023-09-18T14:59:15;100323.38;;;27.64;52.23
76124;BME280;65173;48.066;20.976;2023-09-18T15:02:33;100318.56;;;27.52;52.50
76124;BME280;65173;48.066;20.976;2023-09-18T15:05:37;100321.78;;;27.47;52.71
76124;BME280;65173;48.066;20.976;2023-09-18T15:08:40;100320.16;;;27.33;53.17
76124;BME280;65173;48.066;20.976;2023-09-18T15:11:43;100317.91;;;27.28;53.53
76124;BME280;65173;48.066;20.976;2023-09-18T15:14:45;100318.63;;;27.32;52.99
76124;BME280;65173;48.066;20.976;2023-09-18T15:17:48;100321.75;;;27.14;53.46
76124;BME280;65173;48.066;20.976;2023-09-18T15:20:52;100315.94;;;27.12;53.32
76124;BME280;65173;48.066;20.976;2023-09-18T15:23:56;100312.16;;;27.06;53.44
76124;BME280;65173;48.066;20.976;2023-09-18T15:27:00;100315.00;;;26.63;54.11
76124;BME280;65173;48.066;20.976;2023-09-18T15:30:04;100321.16;;;26.67;55.07
76124;BME280;65173;48.066;20.976;2023-09-18T15:33:07;100304.94;;;26.37;56.05
76124;BME280;65173;48.066;20.976;2023-09-18T15:36:10;100305.75;;;26.14;57.15
76124;BME280;65173;48.066;20.976;2023-09-18T15:39:13;100300.41;;;26.07;58.34
76124;BME280;65173;48.066;20.976;2023-09-18T15:42:15;100294.44;;;25.92;58.19
76124;BME280;65173;48.066;20.976;2023-09-18T15:45:18;100289.25;;;25.74;59.55
76124;BME280;65173;48.066;20.976;2023-09-18T15:48:20;100292.22;;;25.60;59.90
76124;BME280;65173;48.066;20.976;2023-09-18T15:51:23;100293.59;;;25.45;61.25
76124;BME280;65173;48.066;20.976;2023-09-18T15:54:25;100286.41;;;25.31;62.08